createdAt,value
2023-06-14T05:36:22.985Z,9.13
2023-06-14T05:37:14.933Z,9.01
2023-06-14T05:38:06.728Z,8.76
2023-06-14T05:39:01.863Z,8.71
2023-06-14T05:39:53.412Z,9.10
2023-06-14T05:40:44.918Z,8.01
2023-06-14T05:41:36.366Z,7.74
2023-06-14T05:42:28.097Z,8.21
2023-06-14T05:43:19.798Z,8.23
2023-06-14T05:44:11.286Z,7.79
2023-06-14T05:45:07.240Z,8.39
2023-06-14T05:45:58.741Z,8.00
2023-06-14T05:46:50.211Z,7.99
2023-06-14T05:47:41.705Z,7.77
2023-06-14T05:48:33.624Z,7.69
2023-06-14T05:49:25.108Z,7.41
2023-06-14T05:50:16.557Z,7.38
2023-06-14T05:51:14.469Z,7.98
2023-06-14T05:52:06.799Z,7.63
2023-06-14T05:52:58.250Z,7.17
2023-06-14T05:53:50.157Z,6.97
2023-06-14T05:54:42.668Z,6.56
2023-06-14T05:55:34.087Z,6.77
2023-06-14T05:56:28.765Z,6.98
2023-06-14T05:57:20.291Z,7.03
2023-06-14T05:58:14.615Z,6.73
2023-06-14T05:59:06.097Z,6.33
2023-06-14T05:59:57.539Z,7.21
2023-06-14T06:00:49.109Z,6.89
2023-06-14T06:01:43.451Z,7.35
2023-06-14T06:02:35.113Z,6.88
2023-06-14T06:03:30.181Z,6.86
2023-06-14T06:04:22.250Z,6.89
2023-06-14T06:05:14.773Z,6.94
2023-06-14T06:06:06.869Z,6.24
2023-06-14T06:06:58.351Z,6.29
2023-06-14T06:07:50.596Z,7.05
2023-06-14T06:08:42.378Z,6.97
2023-06-14T06:09:34.175Z,6.98
2023-06-14T06:10:25.718Z,7.19
2023-06-14T06:11:17.183Z,6.64
2023-06-14T06:12:13.381Z,6.36
2023-06-14T06:13:09.103Z,6.82
2023-06-14T06:14:04.541Z,5.95
2023-06-14T06:14:56.382Z,5.98
2023-06-14T06:15:50.446Z,6.06
2023-06-14T06:16:44.403Z,6.32
2023-06-14T06:17:50.524Z,6.35
2023-06-14T06:18:46.763Z,6.43
2023-06-14T06:19:38.239Z,6.20
2023-06-14T06:20:32.725Z,6.46
2023-06-14T06:21:24.125Z,6.73
2023-06-14T06:22:15.497Z,6.77
2023-06-14T06:23:07.074Z,6.60
2023-06-14T06:24:00.869Z,6.74
2023-06-14T06:24:52.419Z,6.24
2023-06-14T06:25:49.878Z,5.93
2023-06-14T06:26:41.408Z,5.87
2023-06-14T06:27:33.642Z,5.72
2023-06-14T06:28:25.513Z,6.05
2023-06-14T06:29:16.901Z,5.80
2023-06-14T06:30:08.738Z,5.56
2023-06-14T06:31:51.666Z,6.16
2023-06-14T06:32:43.234Z,6.44
2023-06-14T06:33:34.808Z,6.23
2023-06-14T06:34:26.783Z,5.81
2023-06-14T06:35:18.481Z,5.55
2023-06-14T06:36:12.845Z,5.86
2023-06-14T06:37:04.608Z,6.18
2023-06-14T06:37:56.503Z,5.78
2023-06-14T06:38:48.870Z,5.66
2023-06-14T06:39:40.730Z,5.96
2023-06-14T06:40:32.378Z,5.47
2023-06-14T06:41:28.499Z,5.69
2023-06-14T06:42:19.884Z,5.95
2023-06-14T06:43:18.846Z,5.62
2023-06-14T06:44:13.342Z,5.47
2023-06-14T06:45:05.688Z,5.46
2023-06-14T06:45:57.080Z,5.49
2023-06-14T06:46:53.642Z,5.46
2023-06-14T06:47:45.172Z,5.76
2023-06-14T06:48:36.584Z,5.64
2023-06-14T06:49:28.549Z,5.35
2023-06-14T06:50:24.081Z,5.42
2023-06-14T06:51:15.602Z,5.24
2023-06-14T06:52:08.336Z,5.66
2023-06-14T06:53:00.090Z,5.08
2023-06-14T06:53:57.030Z,5.48
2023-06-14T06:54:48.415Z,5.24
2023-06-14T06:55:39.861Z,5.11
2023-06-14T06:56:32.508Z,4.98
2023-06-14T06:57:24.649Z,4.95
2023-06-14T06:58:16.217Z,5.02
2023-06-14T06:59:07.616Z,5.21
2023-06-14T06:59:59.109Z,5.19
2023-06-14T07:00:52.767Z,4.90
2023-06-14T07:01:44.555Z,4.92
2023-06-14T07:02:36.372Z,5.09
2023-06-14T07:03:27.792Z,5.28
2023-06-14T07:04:19.355Z,4.51
2023-06-14T07:05:11.048Z,4.64
2023-06-14T07:06:03.937Z,4.56
2023-06-14T07:06:55.737Z,4.47
2023-06-14T07:07:47.264Z,4.60
2023-06-14T07:08:42.185Z,4.38
2023-06-14T07:09:33.589Z,4.48
2023-06-14T07:10:28.600Z,4.23
2023-06-14T07:11:20.262Z,4.79
2023-06-14T07:12:14.202Z,4.62
2023-06-14T07:13:05.863Z,4.40
2023-06-14T07:13:57.417Z,4.24
2023-06-14T07:14:48.974Z,4.48
2023-06-14T07:15:40.398Z,4.17
2023-06-14T07:16:31.910Z,4.60
2023-06-14T07:17:25.678Z,4.34
2023-06-14T07:18:17.161Z,4.20
2023-06-14T07:19:11.272Z,4.40
2023-06-14T07:20:12.666Z,4.04
2023-06-14T07:21:04.537Z,3.93
2023-06-14T07:21:56.025Z,4.43
2023-06-14T07:22:48.030Z,3.89
2023-06-14T07:23:40.267Z,3.42
2023-06-14T07:24:31.992Z,3.61
2023-06-14T07:25:23.990Z,3.53
2023-06-14T07:26:15.710Z,3.55
2023-06-14T07:27:09.925Z,3.61
2023-06-14T07:28:01.406Z,3.93
2023-06-14T07:28:53.582Z,3.14
2023-06-14T07:29:45.087Z,3.22
2023-06-14T07:30:36.736Z,3.38
2023-06-14T07:31:28.379Z,3.23
2023-06-14T07:32:19.980Z,3.17
2023-06-14T07:33:13.280Z,2.64
2023-06-14T07:34:04.961Z,3.05
2023-06-14T07:34:56.497Z,2.85
2023-06-14T07:35:53.545Z,2.91
2023-06-14T07:36:48.716Z,2.73
2023-06-14T07:37:41.546Z,2.32
2023-06-14T07:38:42.131Z,2.82
2023-06-14T07:39:35.729Z,2.69
2023-06-14T07:40:27.657Z,2.82
2023-06-14T07:41:22.022Z,2.50
2023-06-14T07:42:15.039Z,2.48
2023-06-14T07:43:06.722Z,2.88
2023-06-14T07:43:58.213Z,3.01
2023-06-14T07:44:51.331Z,2.56
2023-06-14T07:45:51.026Z,2.43
2023-06-14T07:46:50.620Z,2.66
2023-06-14T07:47:42.211Z,2.38
2023-06-14T07:48:33.922Z,2.38
2023-06-14T07:49:25.741Z,2.50
2023-06-14T07:50:17.209Z,2.48
2023-06-14T07:51:08.944Z,2.56
2023-06-14T07:52:00.602Z,2.62
2023-06-14T07:52:52.059Z,2.78
2023-06-14T07:53:43.513Z,2.39
2023-06-14T07:54:35.007Z,2.28
2023-06-14T07:55:26.481Z,2.30
2023-06-14T07:56:19.209Z,2.52
2023-06-14T07:57:10.818Z,2.28
2023-06-14T07:58:02.296Z,2.55
2023-06-14T07:58:53.869Z,2.58
2023-06-14T07:59:45.416Z,2.05
2023-06-14T08:00:38.126Z,2.01
2023-06-14T08:01:29.612Z,2.24
2023-06-14T08:02:21.160Z,1.81
2023-06-14T08:03:12.823Z,1.50
2023-06-14T08:04:05.929Z,1.99
2023-06-14T08:04:59.186Z,2.04
2023-06-14T08:05:51.247Z,2.03
2023-06-14T08:06:49.250Z,1.76
2023-06-14T08:07:43.860Z,1.96
2023-06-14T08:08:35.618Z,1.89
2023-06-14T08:09:28.960Z,2.20
2023-06-14T08:10:23.071Z,1.77
2023-06-14T08:11:14.541Z,2.00
2023-06-14T08:12:08.486Z,2.05
2023-06-14T08:13:02.919Z,2.01
2023-06-14T08:13:54.643Z,2.19
2023-06-14T08:14:46.737Z,2.36
2023-06-14T08:15:39.849Z,2.41
2023-06-14T08:16:33.619Z,2.41
2023-06-14T08:17:27.499Z,2.35
2023-06-14T08:18:18.996Z,2.42
2023-06-14T08:19:10.474Z,2.59
2023-06-14T08:20:02.252Z,2.32
2023-06-14T08:20:55.225Z,2.11
2023-06-14T08:21:47.170Z,2.32
2023-06-14T08:22:38.987Z,2.28
2023-06-14T08:23:30.378Z,2.48
2023-06-14T08:24:30.816Z,2.17
2023-06-14T08:25:22.247Z,2.21
2023-06-14T08:26:14.029Z,2.23
2023-06-14T08:27:06.756Z,2.28
2023-06-14T08:27:58.413Z,2.49
2023-06-14T08:28:50.114Z,2.40
2023-06-14T08:29:42.869Z,2.34
2023-06-14T08:30:34.339Z,2.48
2023-06-14T08:31:28.694Z,2.47
2023-06-14T08:32:22.963Z,2.42
2023-06-14T08:33:17.290Z,2.47
2023-06-14T08:34:09.855Z,2.28
2023-06-14T08:35:05.330Z,2.40
2023-06-14T08:35:57.633Z,2.24
2023-06-14T08:36:49.106Z,2.43
2023-06-14T08:37:44.952Z,2.12
2023-06-14T08:38:36.531Z,2.43
2023-06-14T08:39:28.139Z,2.49
2023-06-14T08:40:22.524Z,2.54
2023-06-14T08:41:22.401Z,2.50
2023-06-14T08:42:27.564Z,2.38
2023-06-14T08:43:23.382Z,2.13
2023-06-14T08:44:17.433Z,2.45
2023-06-14T08:45:09.296Z,2.38
2023-06-14T08:46:05.763Z,2.08
2023-06-14T08:46:59.324Z,2.60
2023-06-14T08:47:58.929Z,2.35
2023-06-14T08:48:53.211Z,2.34
2023-06-14T08:49:50.352Z,2.41
2023-06-14T08:50:44.863Z,2.18
2023-06-14T08:51:37.714Z,2.29
2023-06-14T08:52:41.261Z,2.27
2023-06-14T08:53:36.726Z,2.13
2023-06-14T08:54:37.424Z,2.09
2023-06-14T08:55:31.848Z,2.29
2023-06-14T08:56:30.508Z,2.11
2023-06-14T08:57:39.675Z,2.17
2023-06-14T08:58:49.347Z,2.45
2023-06-14T08:59:54.969Z,2.21
2023-06-14T09:01:22.217Z,2.21
2023-06-14T09:02:15.898Z,2.56
2023-06-14T09:03:14.516Z,2.50
2023-06-14T09:04:06.755Z,2.15
2023-06-14T09:05:06.869Z,2.31
2023-06-14T09:06:09.789Z,2.18
2023-06-14T09:07:07.645Z,2.31
2023-06-14T09:08:06.718Z,2.29
2023-06-14T09:09:17.694Z,2.17
2023-06-14T09:10:12.603Z,2.55
2023-06-14T09:11:25.430Z,2.40
2023-06-14T09:14:01.833Z,2.32
2023-06-14T09:14:53.891Z,2.49
2023-06-14T09:15:46.999Z,2.64
2023-06-14T09:17:17.874Z,2.59
2023-06-14T09:18:24.046Z,2.39
2023-06-14T09:19:25.857Z,2.44
2023-06-14T09:20:20.790Z,2.41
2023-06-14T09:21:13.485Z,2.39
2023-06-14T09:22:06.073Z,2.41
2023-06-14T09:23:01.921Z,2.16
2023-06-14T09:23:58.196Z,2.65
2023-06-14T09:24:51.986Z,2.68
2023-06-14T09:26:10.448Z,2.63
2023-06-14T09:27:02.301Z,2.37
2023-06-14T09:27:59.354Z,2.94
2023-06-14T09:28:51.949Z,2.48
2023-06-14T09:29:46.534Z,2.21
2023-06-14T09:30:39.725Z,2.29
2023-06-14T09:31:34.181Z,2.20
2023-06-14T09:32:26.829Z,2.23
2023-06-14T09:33:25.587Z,2.54
2023-06-14T09:34:24.352Z,2.12
2023-06-14T09:35:19.462Z,2.31
2023-06-14T09:36:17.273Z,2.32
2023-06-14T09:37:09.765Z,2.44
2023-06-14T09:38:03.868Z,2.52
2023-06-14T09:38:59.715Z,2.45
2023-06-14T09:39:53.940Z,2.20
2023-06-14T09:40:46.585Z,2.21
2023-06-14T09:41:42.275Z,2.32
2023-06-14T09:42:36.689Z,2.11
2023-06-14T09:43:29.374Z,2.52
2023-06-14T09:44:22.381Z,2.23
2023-06-14T09:45:15.332Z,2.33
2023-06-14T09:46:07.365Z,2.64
2023-06-14T09:46:58.857Z,2.13
2023-06-14T09:48:05.351Z,2.25
2023-06-14T09:49:02.961Z,2.45
2023-06-14T09:49:56.029Z,2.94
2023-06-14T09:50:50.645Z,2.11
2023-06-14T09:51:50.710Z,2.19
2023-06-14T09:52:45.889Z,2.20
2023-06-14T09:53:38.000Z,2.58
2023-06-14T09:54:31.653Z,2.20
2023-06-14T09:55:26.906Z,2.32
2023-06-14T09:56:30.463Z,2.55
2023-06-14T09:57:23.987Z,2.40
2023-06-14T09:58:21.414Z,2.51
2023-06-14T09:59:13.654Z,2.58
2023-06-14T10:00:11.720Z,2.58
2023-06-14T10:01:09.319Z,2.59
2023-06-14T10:02:24.971Z,2.72
2023-06-14T10:03:30.446Z,2.71
2023-06-14T10:04:24.505Z,2.62
2023-06-14T10:05:18.870Z,2.53
2023-06-14T10:06:10.879Z,2.79
2023-06-14T10:07:04.595Z,2.83
2023-06-14T10:08:06.309Z,2.52
2023-06-14T10:09:02.688Z,2.49
2023-06-14T10:09:57.282Z,2.29
2023-06-14T10:10:49.175Z,2.30
2023-06-14T10:11:45.984Z,2.22
2023-06-14T10:12:37.665Z,2.24
2023-06-14T10:13:37.097Z,2.26
2023-06-14T10:14:29.770Z,2.66
2023-06-14T10:15:39.784Z,2.33
2023-06-14T10:16:43.766Z,2.19
2023-06-14T10:17:46.344Z,2.29
2023-06-14T10:19:06.080Z,2.33
2023-06-14T10:20:20.821Z,2.39
2023-06-14T10:21:30.014Z,2.32
2023-06-14T10:22:36.100Z,2.40
2023-06-14T10:23:31.109Z,2.46
2023-06-14T10:24:31.927Z,2.02
2023-06-14T10:25:31.426Z,2.40
2023-06-14T10:26:25.972Z,2.30
2023-06-14T10:27:24.780Z,2.56
2023-06-14T10:28:24.241Z,2.32
2023-06-14T10:29:15.711Z,2.19
2023-06-14T10:30:10.218Z,2.23
2023-06-14T10:31:12.110Z,2.08
2023-06-14T10:32:06.023Z,2.27
2023-06-14T10:33:11.134Z,2.22
2023-06-14T10:34:06.314Z,2.38
2023-06-14T10:35:05.979Z,2.24
2023-06-14T10:36:32.216Z,2.35
2023-06-14T10:37:25.431Z,2.27
2023-06-14T10:38:35.251Z,2.20
2023-06-14T10:39:28.128Z,2.23
2023-06-14T10:40:32.228Z,2.44
2023-06-14T10:41:28.312Z,2.45
2023-06-14T10:42:21.954Z,2.62
2023-06-14T10:43:24.347Z,2.40
2023-06-14T10:44:15.942Z,2.77
2023-06-14T10:45:07.772Z,2.78
2023-06-14T10:46:18.157Z,2.36
2023-06-14T10:47:31.175Z,2.30
2023-06-14T10:48:31.005Z,2.48
2023-06-14T10:49:43.897Z,2.33
2023-06-14T10:50:36.703Z,2.27
2023-06-14T10:51:46.364Z,2.64
2023-06-14T10:52:45.335Z,2.50
2023-06-14T10:53:43.778Z,2.54
2023-06-14T10:54:35.209Z,2.41
2023-06-14T10:55:35.651Z,2.34
2023-06-14T10:56:33.691Z,2.50
2023-06-14T10:57:25.173Z,2.76
2023-06-14T10:58:16.785Z,2.70
2023-06-14T10:59:08.214Z,2.39
2023-06-14T11:00:15.998Z,2.60
2023-06-14T11:01:09.544Z,2.66
2023-06-14T11:02:48.585Z,2.70
2023-06-14T11:03:56.417Z,2.77
2023-06-14T11:04:51.437Z,2.71
2023-06-14T11:05:53.842Z,2.80
2023-06-14T11:06:51.098Z,2.86
2023-06-14T11:08:06.056Z,3.03
2023-06-14T11:09:13.580Z,3.07
2023-06-14T11:10:26.523Z,3.06
2023-06-14T11:11:19.384Z,2.77
2023-06-14T11:12:12.809Z,3.10
2023-06-14T11:13:05.171Z,3.00
2023-06-14T11:13:56.631Z,2.99
2023-06-14T11:14:49.812Z,2.69
2023-06-14T11:15:46.976Z,2.39
2023-06-14T11:16:38.809Z,2.81
2023-06-14T11:17:31.435Z,2.86
2023-06-14T11:18:25.900Z,2.87
2023-06-14T11:19:18.883Z,3.06
2023-06-14T11:20:17.102Z,2.98
2023-06-14T11:21:11.768Z,2.85
2023-06-14T11:22:06.769Z,3.09
2023-06-14T11:22:59.441Z,2.93
2023-06-14T11:23:56.221Z,2.98
2023-06-14T11:24:51.124Z,2.84
2023-06-14T11:25:42.885Z,2.90
2023-06-14T11:26:36.417Z,2.88
2023-06-14T11:27:28.545Z,2.75
2023-06-14T11:28:22.936Z,2.88
2023-06-14T11:29:18.690Z,2.74
2023-06-14T11:30:11.373Z,2.81
2023-06-14T11:31:04.292Z,2.79
2023-06-14T11:31:56.304Z,2.93
2023-06-14T11:32:58.638Z,2.89
2023-06-14T11:33:51.873Z,2.72
2023-06-14T11:34:47.786Z,2.94
2023-06-14T11:35:39.363Z,2.75
2023-06-14T11:36:32.438Z,2.85
2023-06-14T11:37:27.960Z,2.96
2023-06-14T11:38:19.594Z,2.62
2023-06-14T11:39:11.993Z,2.44
2023-06-14T11:40:09.098Z,2.61
2023-06-14T11:41:01.735Z,3.01
2023-06-14T11:41:56.881Z,2.22
2023-06-14T11:42:48.589Z,2.39
2023-06-14T11:43:41.848Z,2.25
2023-06-14T11:44:33.937Z,2.41
2023-06-14T11:45:26.204Z,2.52
2023-06-14T11:46:18.924Z,2.28
2023-06-14T11:47:10.591Z,2.33
2023-06-14T11:48:02.378Z,2.53
2023-06-14T11:48:54.292Z,2.39
2023-06-14T11:49:45.870Z,2.24
2023-06-14T11:50:39.591Z,2.43
2023-06-14T11:51:37.275Z,2.50
2023-06-14T11:52:31.725Z,2.34
2023-06-14T11:53:23.483Z,2.27
2023-06-14T11:54:17.498Z,2.34
2023-06-14T11:55:09.701Z,2.28
2023-06-14T11:56:04.592Z,2.31
2023-06-14T11:56:56.156Z,2.10
2023-06-14T11:57:48.074Z,2.04
2023-06-14T11:58:44.501Z,2.31
2023-06-14T11:59:49.172Z,2.22
2023-06-14T12:00:41.053Z,2.43
2023-06-14T12:01:37.356Z,2.62
2023-06-14T12:02:32.392Z,2.26
2023-06-14T12:03:29.647Z,2.24
2023-06-14T12:04:26.089Z,2.20
2023-06-14T12:05:22.365Z,2.29
2023-06-14T12:06:13.952Z,2.13
2023-06-14T12:07:21.257Z,2.34
2023-06-14T12:08:18.576Z,2.37
2023-06-14T12:09:15.623Z,2.20
2023-06-14T12:10:09.426Z,2.16
2023-06-14T12:11:06.729Z,1.96
2023-06-14T12:12:02.388Z,2.22
2023-06-14T12:12:59.334Z,2.23
2023-06-14T12:13:52.539Z,2.25
2023-06-14T12:14:44.130Z,2.04
2023-06-14T12:15:36.183Z,1.81
2023-06-14T12:16:41.181Z,1.90
2023-06-14T12:17:34.907Z,2.01
2023-06-14T12:18:37.795Z,1.85
2023-06-14T12:19:29.204Z,2.13
2023-06-14T12:20:24.630Z,2.24
2023-06-14T12:21:18.945Z,2.13
2023-06-14T12:22:14.366Z,2.39
2023-06-14T12:23:06.031Z,2.23
2023-06-14T12:23:57.838Z,2.36
2023-06-14T12:24:49.796Z,2.21
2023-06-14T12:25:42.719Z,2.16
2023-06-14T12:26:38.798Z,2.45
2023-06-14T12:27:33.586Z,2.23
2023-06-14T12:28:32.720Z,2.00
2023-06-14T12:29:25.318Z,2.16
2023-06-14T12:30:16.914Z,2.11
2023-06-14T12:31:08.383Z,2.19
2023-06-14T12:32:00.483Z,2.09
2023-06-14T12:32:52.608Z,2.08
2023-06-14T12:33:46.696Z,2.31
2023-06-14T12:34:42.531Z,2.14
2023-06-14T12:35:34.023Z,2.02
2023-06-14T12:36:26.732Z,2.16
2023-06-14T12:37:18.193Z,2.40
2023-06-14T12:38:12.052Z,2.27
2023-06-14T12:39:03.500Z,2.52
2023-06-14T12:39:54.887Z,2.54
2023-06-14T12:40:46.426Z,2.36
2023-06-14T12:41:38.873Z,2.14
2023-06-14T12:42:30.602Z,2.08
2023-06-14T12:43:22.129Z,2.31
2023-06-14T12:44:14.273Z,2.27
2023-06-14T12:45:06.386Z,2.12
2023-06-14T12:45:58.039Z,2.24
2023-06-14T12:46:52.280Z,2.03
2023-06-14T12:47:43.885Z,2.31
2023-06-14T12:48:37.562Z,2.48
2023-06-14T12:49:32.934Z,2.45
2023-06-14T12:50:26.478Z,2.24
2023-06-14T12:51:18.577Z,2.36
2023-06-14T12:52:10.202Z,2.40
2023-06-14T12:53:01.747Z,2.17
2023-06-14T12:53:53.345Z,2.38
2023-06-14T12:54:44.975Z,2.10
2023-06-14T12:55:39.012Z,2.42
2023-06-14T12:56:30.544Z,2.28
2023-06-14T12:57:21.962Z,2.25
2023-06-14T12:58:15.726Z,2.25
2023-06-14T12:59:07.461Z,2.36
2023-06-14T13:00:01.587Z,2.21
2023-06-14T13:00:53.692Z,2.18
2023-06-14T13:01:50.759Z,2.40
2023-06-14T13:02:42.393Z,2.11
2023-06-14T13:03:36.729Z,2.18
2023-06-14T13:04:28.424Z,2.46
2023-06-14T13:05:20.081Z,2.42
2023-06-14T13:06:12.276Z,2.30
2023-06-14T13:07:03.888Z,2.49
2023-06-14T13:07:55.565Z,2.30
2023-06-14T13:08:47.207Z,2.34
2023-06-14T13:09:38.992Z,2.27
2023-06-14T13:10:30.459Z,2.47
2023-06-14T13:11:21.930Z,2.70
2023-06-14T13:12:13.672Z,2.39
2023-06-14T13:13:05.329Z,2.49
2023-06-14T13:13:58.157Z,2.36
2023-06-14T13:14:49.719Z,2.77
2023-06-14T13:15:41.324Z,2.51
2023-06-14T13:16:32.910Z,2.58
2023-06-14T13:17:24.439Z,2.31
2023-06-14T13:18:20.150Z,2.56
2023-06-14T13:19:11.567Z,2.55
2023-06-14T13:20:03.321Z,2.67
2023-06-14T13:20:54.862Z,2.57
2023-06-14T13:21:46.429Z,2.42
2023-06-14T13:22:37.958Z,2.61
2023-06-14T13:23:29.607Z,2.47
2023-06-14T13:24:21.543Z,2.53
2023-06-14T13:25:13.105Z,2.43
2023-06-14T13:26:04.669Z,2.61
2023-06-14T13:26:57.575Z,2.80
2023-06-14T13:27:52.348Z,2.85
2023-06-14T13:28:43.820Z,2.51
2023-06-14T13:29:36.918Z,2.76
2023-06-14T13:30:30.562Z,2.65
2023-06-14T13:31:22.222Z,2.85
2023-06-14T13:32:13.826Z,2.87
2023-06-14T13:33:05.522Z,2.93
2023-06-14T13:33:57.068Z,2.91
2023-06-14T13:34:48.996Z,2.88
2023-06-14T13:35:42.040Z,3.32
2023-06-14T13:36:36.107Z,3.24
2023-06-14T13:37:27.701Z,3.08
2023-06-14T13:38:19.776Z,3.17
2023-06-14T13:39:12.134Z,2.81
2023-06-14T13:40:03.937Z,3.32
2023-06-14T13:40:56.230Z,3.40
2023-06-14T13:41:47.680Z,3.32
2023-06-14T13:42:40.263Z,3.28
2023-06-14T13:43:31.786Z,3.19
2023-06-14T13:44:27.680Z,2.89
2023-06-14T13:45:19.214Z,3.11
2023-06-14T13:46:13.091Z,3.02
2023-06-14T13:47:05.173Z,3.20
2023-06-14T13:47:59.230Z,3.24
2023-06-14T13:48:52.241Z,3.00
2023-06-14T13:49:44.106Z,3.24
2023-06-14T13:50:35.949Z,3.20
2023-06-14T13:51:28.100Z,3.11
2023-06-14T13:52:19.566Z,2.72
2023-06-14T13:53:11.044Z,3.14
2023-06-14T13:54:02.458Z,3.06
2023-06-14T13:54:53.935Z,3.03
2023-06-14T13:55:45.413Z,3.35
2023-06-14T13:56:37.290Z,3.09
2023-06-14T13:57:29.065Z,2.99
2023-06-14T13:58:25.131Z,3.27
2023-06-14T13:59:17.295Z,3.05
2023-06-14T14:00:09.772Z,3.28
2023-06-14T14:01:04.200Z,3.38
2023-06-14T14:01:55.858Z,3.19
2023-06-14T14:02:47.369Z,3.17
2023-06-14T14:03:38.897Z,3.10
2023-06-14T14:04:30.499Z,3.31
2023-06-14T14:05:29.485Z,3.26
2023-06-14T14:06:21.497Z,2.97
2023-06-14T14:07:14.893Z,3.24
2023-06-14T14:08:08.646Z,3.12
2023-06-14T14:09:01.468Z,2.96
2023-06-14T14:09:54.700Z,3.19
2023-06-14T14:10:46.976Z,3.18
2023-06-14T14:11:42.522Z,3.16
2023-06-14T14:12:36.283Z,3.15
2023-06-14T14:13:30.485Z,3.52
2023-06-14T14:14:24.452Z,3.23
2023-06-14T14:15:16.683Z,3.05
2023-06-14T14:16:11.904Z,3.08
2023-06-14T14:17:03.782Z,3.27
2023-06-14T14:17:55.661Z,3.06
2023-06-14T14:18:50.136Z,3.21
2023-06-14T14:19:41.973Z,3.63
2023-06-14T14:20:33.535Z,3.05
2023-06-14T14:21:25.375Z,3.00
2023-06-14T14:22:16.904Z,3.28
2023-06-14T14:23:10.511Z,3.40
2023-06-14T14:24:01.936Z,3.53
2023-06-14T14:24:55.597Z,3.13
2023-06-14T14:25:47.519Z,3.12
2023-06-14T14:26:42.089Z,3.21
2023-06-14T14:27:33.654Z,3.09
2023-06-14T14:28:25.186Z,3.09
2023-06-14T14:29:17.922Z,3.03
2023-06-14T14:30:09.848Z,3.13
2023-06-14T14:31:04.462Z,2.82
2023-06-14T14:31:59.968Z,3.09
2023-06-14T14:32:52.617Z,3.53
2023-06-14T14:33:44.574Z,3.47
2023-06-14T14:34:36.240Z,3.20
2023-06-14T14:35:31.422Z,3.26
2023-06-14T14:36:23.159Z,2.95
2023-06-14T14:37:16.046Z,3.23
2023-06-14T14:38:07.495Z,3.12
2023-06-14T14:38:59.076Z,3.39
2023-06-14T14:39:50.495Z,3.24
2023-06-14T14:40:42.228Z,3.27
2023-06-14T14:41:34.801Z,3.11
2023-06-14T14:42:27.555Z,3.16
2023-06-14T14:43:18.995Z,3.15
2023-06-14T14:44:10.435Z,3.26
2023-06-14T14:45:03.093Z,3.20
2023-06-14T14:45:54.563Z,3.16
2023-06-14T14:46:48.655Z,3.02
2023-06-14T14:47:40.359Z,3.22
2023-06-14T14:48:32.041Z,3.07
2023-06-14T14:49:23.747Z,3.12
2023-06-14T14:50:16.232Z,3.26
2023-06-14T14:51:08.072Z,3.29
2023-06-14T14:52:05.517Z,3.31
2023-06-14T14:53:08.755Z,3.56
2023-06-14T14:54:01.378Z,3.43
2023-06-14T14:54:53.100Z,3.33
2023-06-14T14:55:47.552Z,3.09
2023-06-14T14:56:39.394Z,3.30
2023-06-14T14:57:31.343Z,3.12
2023-06-14T14:58:24.036Z,3.04
2023-06-14T14:59:15.695Z,3.05
2023-06-14T15:00:07.634Z,3.13
2023-06-14T15:01:01.959Z,3.50
2023-06-14T15:01:54.126Z,3.43
2023-06-14T15:02:45.816Z,3.13
2023-06-14T15:03:49.945Z,3.46
2023-06-14T15:04:49.119Z,3.22
2023-06-14T15:05:40.886Z,3.21
2023-06-14T15:06:32.292Z,3.62
2023-06-14T15:07:23.863Z,3.45
2023-06-14T15:08:17.659Z,3.38
2023-06-14T15:09:09.203Z,3.44
2023-06-14T15:10:03.663Z,3.33
2023-06-14T15:10:55.579Z,3.31
2023-06-14T15:11:47.150Z,3.38
2023-06-14T15:12:41.251Z,3.37
2023-06-14T15:13:33.261Z,3.61
2023-06-14T15:14:27.165Z,3.14
2023-06-14T15:15:18.952Z,3.51
2023-06-14T15:16:10.561Z,3.47
2023-06-14T15:17:02.865Z,3.33
2023-06-14T15:17:55.369Z,3.28
2023-06-14T15:18:46.909Z,3.35
2023-06-14T15:19:38.408Z,3.22
2023-06-14T15:20:30.276Z,3.28
2023-06-14T15:21:23.683Z,3.66
2023-06-14T15:22:16.020Z,3.21
2023-06-14T15:23:07.409Z,2.86
2023-06-14T15:23:58.958Z,3.04
2023-06-14T15:24:51.024Z,3.48
2023-06-14T15:25:42.702Z,3.37
2023-06-14T15:26:34.264Z,3.23
2023-06-14T15:27:25.906Z,3.29
2023-06-14T15:28:20.154Z,3.14
2023-06-14T15:29:11.542Z,3.27
2023-06-14T15:30:04.258Z,3.39
2023-06-14T15:30:57.117Z,3.34
2023-06-14T15:31:49.907Z,3.16
2023-06-14T15:32:41.487Z,3.02
2023-06-14T15:33:32.940Z,3.06
2023-06-14T15:34:24.757Z,3.38
2023-06-14T15:35:21.109Z,3.35
2023-06-14T15:36:12.683Z,3.32
2023-06-14T15:37:04.871Z,3.17
2023-06-14T15:37:59.150Z,3.07
2023-06-14T15:38:50.775Z,3.14
2023-06-14T15:39:42.226Z,3.39
2023-06-14T15:40:35.798Z,3.19
2023-06-14T15:41:29.555Z,3.75
2023-06-14T15:42:22.771Z,3.63
2023-06-14T15:43:14.364Z,3.68
2023-06-14T15:44:05.890Z,3.48
2023-06-14T15:44:59.746Z,3.65
2023-06-14T15:45:53.588Z,3.07
2023-06-14T15:46:45.194Z,3.39
2023-06-14T15:47:36.785Z,3.17
2023-06-14T15:48:29.752Z,3.55
2023-06-14T15:49:21.838Z,3.30
2023-06-14T15:50:13.366Z,3.22
2023-06-14T15:51:04.917Z,3.96
2023-06-14T15:52:03.768Z,3.61
2023-06-14T15:52:55.610Z,3.35
2023-06-14T15:53:47.200Z,3.42
2023-06-14T15:54:39.037Z,3.66
2023-06-14T15:55:32.548Z,3.73
2023-06-14T15:56:24.374Z,3.59
2023-06-14T15:57:15.896Z,3.47
2023-06-14T15:58:08.627Z,3.37
2023-06-14T15:59:00.619Z,3.75
2023-06-14T15:59:52.339Z,3.74
2023-06-14T16:00:44.038Z,3.82
2023-06-14T16:01:35.529Z,3.33
2023-06-14T16:02:27.174Z,3.73
2023-06-14T16:03:18.942Z,3.47
2023-06-14T16:04:10.680Z,3.45
2023-06-14T16:05:02.172Z,3.34
2023-06-14T16:05:53.754Z,3.84
2023-06-14T16:06:45.267Z,3.82
2023-06-14T16:07:36.679Z,3.34
2023-06-14T16:08:39.648Z,3.46
2023-06-14T16:09:34.951Z,3.33
2023-06-14T16:10:28.292Z,3.21
2023-06-14T16:11:20.423Z,3.52
2023-06-14T16:12:15.423Z,3.49
2023-06-14T16:13:08.633Z,3.00
2023-06-14T16:14:00.056Z,3.15
2023-06-14T16:14:53.786Z,3.27
2023-06-14T16:15:47.768Z,3.24
2023-06-14T16:16:39.958Z,3.22
2023-06-14T16:17:31.604Z,3.20
2023-06-14T16:18:23.645Z,3.51
2023-06-14T16:19:15.857Z,3.11
2023-06-14T16:20:08.813Z,3.29
2023-06-14T16:21:01.096Z,3.13
2023-06-14T16:21:52.545Z,3.18
2023-06-14T16:22:43.965Z,3.11
2023-06-14T16:23:38.612Z,3.02
2023-06-14T16:24:30.446Z,3.39
2023-06-14T16:25:24.396Z,3.60
2023-06-14T16:26:17.062Z,3.38
2023-06-14T16:27:10.409Z,3.36
2023-06-14T16:28:02.713Z,3.30
2023-06-14T16:28:54.422Z,3.48
2023-06-14T16:29:46.487Z,3.59
2023-06-14T16:30:38.630Z,3.58
2023-06-14T16:31:33.387Z,3.01
2023-06-14T16:32:25.102Z,3.24
2023-06-14T16:33:16.625Z,3.20
2023-06-14T16:34:12.234Z,3.41
2023-06-14T16:35:04.073Z,3.21
2023-06-14T16:35:56.654Z,3.07
2023-06-14T16:36:48.155Z,3.29
2023-06-14T16:37:39.958Z,3.42
2023-06-14T16:38:35.387Z,4.01
2023-06-14T16:39:26.979Z,3.80
2023-06-14T16:40:20.500Z,3.62
2023-06-14T16:41:14.114Z,3.92
2023-06-14T16:42:18.206Z,3.94
2023-06-14T16:45:42.288Z,4.05
2023-06-14T16:56:51.642Z,3.30
2023-06-14T16:58:08.544Z,3.15
2023-06-14T16:59:12.698Z,3.31
2023-06-14T17:00:25.859Z,3.47
2023-06-14T17:01:28.998Z,3.42
2023-06-14T17:02:41.077Z,3.36
2023-06-14T17:03:56.949Z,3.29
2023-06-14T17:05:17.165Z,3.37
2023-06-14T17:06:28.251Z,3.18
2023-06-14T17:07:52.223Z,3.21
2023-06-14T17:09:08.210Z,3.61
2023-06-14T17:11:09.472Z,3.64
2023-06-14T17:13:05.276Z,3.27
2023-06-14T17:14:52.594Z,3.62
2023-06-14T17:16:19.065Z,3.60
2023-06-14T17:17:28.921Z,3.51
2023-06-14T17:26:53.927Z,4.01
2023-06-14T17:28:15.564Z,3.87
2023-06-14T17:29:32.128Z,3.86
2023-06-14T17:30:45.716Z,3.90
2023-06-14T17:32:30.516Z,4.01
2023-06-14T17:33:52.734Z,3.72
2023-06-14T17:35:16.783Z,3.76
2023-06-14T17:36:22.701Z,3.75
2023-06-14T17:37:42.568Z,3.68
2023-06-14T17:40:53.370Z,3.84
2023-06-14T17:42:16.894Z,3.52
2023-06-14T17:43:41.737Z,3.80
2023-06-14T17:45:20.354Z,3.62
2023-06-14T17:48:05.163Z,3.58
2023-06-14T17:49:44.560Z,3.89
2023-06-14T17:51:30.758Z,3.83
2023-06-14T17:52:55.067Z,3.89
2023-06-14T17:54:19.107Z,3.73
2023-06-14T17:55:47.681Z,3.58
2023-06-14T17:57:13.920Z,3.91
2023-06-14T17:58:48.916Z,3.98
2023-06-14T18:00:02.951Z,3.89
2023-06-14T18:01:27.705Z,4.17
2023-06-14T18:03:34.045Z,4.12
2023-06-14T18:04:54.910Z,3.91
2023-06-14T18:06:18.602Z,4.49
2023-06-14T18:07:49.934Z,4.29
2023-06-14T18:09:24.217Z,4.26
2023-06-14T18:11:16.883Z,4.25
2023-06-14T18:12:39.271Z,4.24
2023-06-14T18:14:12.644Z,4.47
2023-06-14T18:15:48.490Z,3.91
2023-06-14T18:17:18.195Z,4.42
2023-06-14T18:18:52.051Z,4.09
2023-06-14T18:20:11.824Z,4.28
2023-06-14T18:21:35.266Z,4.13
2023-06-14T18:22:51.471Z,4.05
2023-06-14T18:24:20.071Z,3.95
2023-06-14T18:25:28.371Z,3.89
2023-06-14T18:26:40.048Z,4.08
2023-06-14T18:27:37.916Z,3.98
2023-06-14T18:28:37.498Z,3.73
2023-06-14T18:30:00.649Z,3.78
2023-06-14T18:31:44.039Z,4.03
2023-06-14T18:33:33.177Z,4.17
2023-06-14T18:35:15.400Z,3.87
2023-06-14T18:53:32.521Z,4.13
2023-06-14T18:54:29.868Z,5.11